Pagrindinis puslapis
METAR-TAF:

METAR-TAF

Oro uostai :

Tarantas, Italija

platuma: 40-31N, ilguma: 017-24E, Aukštis: 64 m

Dabartinis oras

Ataskaita buvo paskelbta 1 valandą ir 18 minutes, ne 17:50 UTC
Ramus vėjas
Temperatūra 18°C
Drėgmė 94%
Slėgis 1014 hPa
Matomumas 10 km arba daugiau
Mažai debesys ne aukštis 2000 ft
lietus

METAR: LIBG 191750Z 00000KT 9999 -RA FEW020 18/17 Q1014

Laikas: 21:08 (19:08 UTC)

Prognozė

Ataskaita buvo paskelbta 2 valandos ir 8 minutes, ne 17:00 UTC
Prognozė galioja nuo 19 metu 18 UTC su 20 metu 03 UTC
Vėjas 10 kt iš Šiaurės/Šiaurės Rytų
Matomumas 10 km arba daugiau
Išsisklaidę debesys ne aukštis 2000 ft
Laikinai
nuo 19 metu 18 UTC su 20 metu 03 UTC
Matomumas: 4000 m
perkūnija, lietus

TAF: LIBG 191700Z 1918/2003 02010KT 9999 SCT020 TEMPO 1918/2003 4000 TSRA

Orai ataskaitas ir orų prognozės (METAR, TAF).

turimą stotys yra geltonos ir raudonos taškus žemėlapyje.

Perkelti pele per norėdami pamatyti stoties vardą.

Tada spustelėkite, norėdami matyti oro stebėjimo ir prognozės.

Norėdami pakeisti žemėlapį: spustelėkite ant žalios mygtukų su juodo kryžiaus žemyn,; žalią mygtuką su brūkšneliu, jei norite nutolinti; arba žalių rodyklių gretimoms žemėlapius.


METAR-TAF: